sensor_id;sensor_type;location;lat;lon;timestamp;P1;durP1;ratioP1;P2;durP2;ratioP2
73421;SDS011;61637;47.760;-122.022;2023-10-09T00:00:01;13.7;;;5.4;;
73421;SDS011;61637;47.760;-122.022;2023-10-09T00:02:01;13.0;;;5.5;;
73421;SDS011;61637;47.760;-122.022;2023-10-09T00:04:01;15.8;;;6.1;;
73421;SDS011;61637;47.760;-122.022;2023-10-09T00:06:01;12.1;;;5.5;;
73421;SDS011;61637;47.760;-122.022;2023-10-09T00:08:01;11.8;;;5.2;;
73421;SDS011;61637;47.760;-122.022;2023-10-09T00:10:01;12.5;;;4.8;;
73421;SDS011;61637;47.760;-122.022;2023-10-09T00:12:01;11.5;;;5.0;;
73421;SDS011;61637;47.760;-122.022;2023-10-09T00:14:01;10.3;;;4.5;;
73421;SDS011;61637;47.760;-122.022;2023-10-09T00:16:05;9.0;;;4.5;;
73421;SDS011;61637;47.760;-122.022;2023-10-09T00:18:01;12.6;;;4.3;;
73421;SDS011;61637;47.760;-122.022;2023-10-09T00:20:01;8.6;;;4.3;;
73421;SDS011;61637;47.760;-122.022;2023-10-09T00:22:01;9.9;;;4.4;;
73421;SDS011;61637;47.760;-122.022;2023-10-09T00:24:01;10.1;;;4.4;;
73421;SDS011;61637;47.760;-122.022;2023-10-09T00:26:01;8.1;;;4.4;;
73421;SDS011;61637;47.760;-122.022;2023-10-09T00:28:01;8.7;;;4.0;;
73421;SDS011;61637;47.760;-122.022;2023-10-09T00:30:01;7.5;;;3.9;;
73421;SDS011;61637;47.760;-122.022;2023-10-09T00:32:01;14.1;;;4.5;;
73421;SDS011;61637;47.760;-122.022;2023-10-09T00:34:01;22.1;;;4.7;;
73421;SDS011;61637;47.760;-122.022;2023-10-09T00:36:03;18.2;;;4.1;;
73421;SDS011;61637;47.760;-122.022;2023-10-09T00:38:01;11.3;;;4.2;;
73421;SDS011;61637;47.760;-122.022;2023-10-09T00:40:01;14.3;;;4.3;;
73421;SDS011;61637;47.760;-122.022;2023-10-09T00:42:01;13.0;;;4.1;;
73421;SDS011;61637;47.760;-122.022;2023-10-09T00:44:01;16.4;;;4.4;;
73421;SDS011;61637;47.760;-122.022;2023-10-09T00:46:03;17.2;;;4.2;;
73421;SDS011;61637;47.760;-122.022;2023-10-09T00:48:01;10.4;;;3.9;;
73421;SDS011;61637;47.760;-122.022;2023-10-09T00:50:03;13.4;;;3.9;;
73421;SDS011;61637;47.760;-122.022;2023-10-09T00:52:01;16.5;;;4.2;;
73421;SDS011;61637;47.760;-122.022;2023-10-09T00:54:02;16.6;;;4.0;;
73421;SDS011;61637;47.760;-122.022;2023-10-09T00:56:01;10.0;;;3.6;;
73421;SDS011;61637;47.760;-122.022;2023-10-09T00:58:02;8.8;;;3.7;;
73421;SDS011;61637;47.760;-122.022;2023-10-09T01:00:01;8.2;;;3.7;;
73421;SDS011;61637;47.760;-122.022;2023-10-09T01:02:01;9.9;;;4.0;;
73421;SDS011;61637;47.760;-122.022;2023-10-09T01:04:01;14.7;;;3.8;;
73421;SDS011;61637;47.760;-122.022;2023-10-09T01:06:02;17.0;;;4.5;;
73421;SDS011;61637;47.760;-122.022;2023-10-09T01:08:01;9.6;;;4.1;;
73421;SDS011;61637;47.760;-122.022;2023-10-09T01:10:01;12.4;;;4.1;;
73421;SDS011;61637;47.760;-122.022;2023-10-09T01:12:01;13.4;;;4.3;;
73421;SDS011;61637;47.760;-122.022;2023-10-09T01:14:01;16.3;;;4.1;;
73421;SDS011;61637;47.760;-122.022;2023-10-09T01:16:04;18.3;;;4.1;;
73421;SDS011;61637;47.760;-122.022;2023-10-09T01:18:02;13.2;;;4.1;;
73421;SDS011;61637;47.760;-122.022;2023-10-09T01:20:01;15.2;;;4.3;;
73421;SDS011;61637;47.760;-122.022;2023-10-09T01:22:01;7.6;;;3.6;;
73421;SDS011;61637;47.760;-122.022;2023-10-09T01:24:01;10.3;;;3.8;;
73421;SDS011;61637;47.760;-122.022;2023-10-09T01:26:01;17.3;;;4.2;;
73421;SDS011;61637;47.760;-122.022;2023-10-09T01:28:01;15.7;;;4.0;;
73421;SDS011;61637;47.760;-122.022;2023-10-09T01:30:01;16.2;;;4.0;;
73421;SDS011;61637;47.760;-122.022;2023-10-09T01:32:01;9.2;;;3.7;;
73421;SDS011;61637;47.760;-122.022;2023-10-09T01:34:01;11.5;;;3.7;;
73421;SDS011;61637;47.760;-122.022;2023-10-09T01:36:01;11.6;;;4.0;;
73421;SDS011;61637;47.760;-122.022;2023-10-09T01:38:01;12.3;;;4.2;;
73421;SDS011;61637;47.760;-122.022;2023-10-09T01:40:01;9.3;;;3.7;;
73421;SDS011;61637;47.760;-122.022;2023-10-09T01:42:01;15.6;;;4.9;;
73421;SDS011;61637;47.760;-122.022;2023-10-09T01:44:01;9.3;;;4.1;;
73421;SDS011;61637;47.760;-122.022;2023-10-09T01:46:01;14.2;;;4.3;;
73421;SDS011;61637;47.760;-122.022;2023-10-09T01:48:01;10.6;;;4.0;;
73421;SDS011;61637;47.760;-122.022;2023-10-09T01:50:01;7.4;;;4.0;;
73421;SDS011;61637;47.760;-122.022;2023-10-09T01:52:01;17.4;;;4.4;;
73421;SDS011;61637;47.760;-122.022;2023-10-09T01:54:01;12.3;;;4.0;;
73421;SDS011;61637;47.760;-122.022;2023-10-09T01:56:09;13.2;;;4.7;;
73421;SDS011;61637;47.760;-122.022;2023-10-09T01:58:02;10.0;;;3.9;;
73421;SDS011;61637;47.760;-122.022;2023-10-09T02:00:01;14.4;;;4.2;;
73421;SDS011;61637;47.760;-122.022;2023-10-09T02:02:01;15.1;;;4.2;;
73421;SDS011;61637;47.760;-122.022;2023-10-09T02:04:01;10.2;;;4.3;;
73421;SDS011;61637;47.760;-122.022;2023-10-09T02:06:01;10.8;;;4.3;;
73421;SDS011;61637;47.760;-122.022;2023-10-09T02:08:01;10.6;;;4.3;;
73421;SDS011;61637;47.760;-122.022;2023-10-09T02:10:01;16.5;;;4.2;;
73421;SDS011;61637;47.760;-122.022;2023-10-09T02:12:02;19.8;;;4.6;;
73421;SDS011;61637;47.760;-122.022;2023-10-09T02:14:01;13.7;;;4.2;;
73421;SDS011;61637;47.760;-122.022;2023-10-09T02:16:01;13.8;;;3.9;;
73421;SDS011;61637;47.760;-122.022;2023-10-09T02:18:01;12.2;;;4.4;;
73421;SDS011;61637;47.760;-122.022;2023-10-09T02:20:01;24.8;;;4.6;;
73421;SDS011;61637;47.760;-122.022;2023-10-09T02:22:02;14.6;;;4.6;;
73421;SDS011;61637;47.760;-122.022;2023-10-09T02:24:02;10.8;;;4.0;;
73421;SDS011;61637;47.760;-122.022;2023-10-09T02:26:01;10.8;;;3.9;;
73421;SDS011;61637;47.760;-122.022;2023-10-09T02:28:01;15.6;;;4.5;;
73421;SDS011;61637;47.760;-122.022;2023-10-09T02:30:02;16.3;;;4.5;;
73421;SDS011;61637;47.760;-122.022;2023-10-09T02:32:01;11.1;;;4.6;;
73421;SDS011;61637;47.760;-122.022;2023-10-09T02:34:01;8.0;;;4.2;;
73421;SDS011;61637;47.760;-122.022;2023-10-09T02:36:01;17.9;;;4.7;;
73421;SDS011;61637;47.760;-122.022;2023-10-09T02:38:01;18.7;;;4.7;;
73421;SDS011;61637;47.760;-122.022;2023-10-09T02:40:01;21.6;;;4.4;;
73421;SDS011;61637;47.760;-122.022;2023-10-09T02:42:01;22.2;;;5.0;;
73421;SDS011;61637;47.760;-122.022;2023-10-09T02:44:01;18.6;;;4.7;;
73421;SDS011;61637;47.760;-122.022;2023-10-09T02:46:02;9.6;;;4.8;;
73421;SDS011;61637;47.760;-122.022;2023-10-09T02:48:01;12.3;;;4.4;;
73421;SDS011;61637;47.760;-122.022;2023-10-09T02:50:01;12.5;;;4.6;;
73421;SDS011;61637;47.760;-122.022;2023-10-09T02:52:01;15.5;;;4.7;;
73421;SDS011;61637;47.760;-122.022;2023-10-09T02:54:02;11.3;;;4.5;;
73421;SDS011;61637;47.760;-122.022;2023-10-09T02:56:01;20.3;;;5.0;;
73421;SDS011;61637;47.760;-122.022;2023-10-09T02:58:01;10.0;;;4.6;;
73421;SDS011;61637;47.760;-122.022;2023-10-09T03:00:01;15.3;;;4.9;;
73421;SDS011;61637;47.760;-122.022;2023-10-09T03:02:01;18.7;;;5.0;;
73421;SDS011;61637;47.760;-122.022;2023-10-09T03:04:01;12.1;;;4.7;;
73421;SDS011;61637;47.760;-122.022;2023-10-09T03:06:01;12.7;;;4.7;;
73421;SDS011;61637;47.760;-122.022;2023-10-09T03:08:01;15.8;;;5.1;;
73421;SDS011;61637;47.760;-122.022;2023-10-09T03:10:01;15.0;;;5.4;;
73421;SDS011;61637;47.760;-122.022;2023-10-09T03:12:03;14.5;;;4.9;;
73421;SDS011;61637;47.760;-122.022;2023-10-09T03:14:01;21.1;;;5.2;;
73421;SDS011;61637;47.760;-122.022;2023-10-09T03:16:01;20.6;;;5.3;;
73421;SDS011;61637;47.760;-122.022;2023-10-09T03:18:01;15.4;;;5.5;;
73421;SDS011;61637;47.760;-122.022;2023-10-09T03:20:04;19.9;;;5.0;;
73421;SDS011;61637;47.760;-122.022;2023-10-09T03:22:01;18.0;;;5.3;;
73421;SDS011;61637;47.760;-122.022;2023-10-09T03:24:01;25.5;;;5.3;;
73421;SDS011;61637;47.760;-122.022;2023-10-09T03:26:01;19.0;;;5.5;;
73421;SDS011;61637;47.760;-122.022;2023-10-09T03:28:01;14.3;;;5.5;;
73421;SDS011;61637;47.760;-122.022;2023-10-09T03:30:01;11.6;;;5.0;;
73421;SDS011;61637;47.760;-122.022;2023-10-09T03:32:01;11.6;;;5.3;;
73421;SDS011;61637;47.760;-122.022;2023-10-09T03:34:01;17.6;;;5.4;;
73421;SDS011;61637;47.760;-122.022;2023-10-09T03:36:01;25.7;;;5.3;;
73421;SDS011;61637;47.760;-122.022;2023-10-09T03:38:01;25.7;;;5.3;;
73421;SDS011;61637;47.760;-122.022;2023-10-09T03:40:01;17.0;;;5.2;;
73421;SDS011;61637;47.760;-122.022;2023-10-09T03:42:01;15.3;;;5.6;;
73421;SDS011;61637;47.760;-122.022;2023-10-09T03:44:01;14.0;;;5.5;;
73421;SDS011;61637;47.760;-122.022;2023-10-09T03:46:01;17.1;;;5.5;;
73421;SDS011;61637;47.760;-122.022;2023-10-09T03:48:01;35.6;;;6.1;;
73421;SDS011;61637;47.760;-122.022;2023-10-09T03:50:01;14.3;;;6.0;;
73421;SDS011;61637;47.760;-122.022;2023-10-09T03:52:01;17.7;;;5.8;;
73421;SDS011;61637;47.760;-122.022;2023-10-09T03:54:01;12.5;;;6.7;;
73421;SDS011;61637;47.760;-122.022;2023-10-09T03:56:01;13.7;;;5.8;;
73421;SDS011;61637;47.760;-122.022;2023-10-09T03:58:01;24.4;;;6.3;;
73421;SDS011;61637;47.760;-122.022;2023-10-09T04:00:01;18.5;;;6.7;;
73421;SDS011;61637;47.760;-122.022;2023-10-09T04:02:01;17.7;;;6.9;;
73421;SDS011;61637;47.760;-122.022;2023-10-09T04:04:01;12.8;;;6.5;;
73421;SDS011;61637;47.760;-122.022;2023-10-09T04:06:01;12.7;;;6.5;;
73421;SDS011;61637;47.760;-122.022;2023-10-09T04:08:01;13.7;;;6.4;;
73421;SDS011;61637;47.760;-122.022;2023-10-09T04:10:01;22.3;;;6.1;;
73421;SDS011;61637;47.760;-122.022;2023-10-09T04:12:01;18.1;;;6.5;;
73421;SDS011;61637;47.760;-122.022;2023-10-09T04:14:01;17.5;;;6.3;;
73421;SDS011;61637;47.760;-122.022;2023-10-09T04:16:02;18.3;;;6.1;;
73421;SDS011;61637;47.760;-122.022;2023-10-09T04:18:01;16.4;;;6.1;;
73421;SDS011;61637;47.760;-122.022;2023-10-09T04:20:01;18.2;;;6.6;;
73421;SDS011;61637;47.760;-122.022;2023-10-09T04:22:01;14.0;;;6.4;;
73421;SDS011;61637;47.760;-122.022;2023-10-09T04:24:01;14.8;;;6.6;;
73421;SDS011;61637;47.760;-122.022;2023-10-09T04:26:01;16.0;;;6.4;;
73421;SDS011;61637;47.760;-122.022;2023-10-09T04:28:01;19.4;;;6.9;;
73421;SDS011;61637;47.760;-122.022;2023-10-09T04:30:01;24.6;;;7.2;;
73421;SDS011;61637;47.760;-122.022;2023-10-09T04:32:01;13.5;;;7.0;;
73421;SDS011;61637;47.760;-122.022;2023-10-09T04:34:02;17.9;;;6.0;;
73421;SDS011;61637;47.760;-122.022;2023-10-09T04:36:03;19.6;;;6.9;;
73421;SDS011;61637;47.760;-122.022;2023-10-09T04:38:01;16.9;;;6.9;;
73421;SDS011;61637;47.760;-122.022;2023-10-09T04:40:01;21.9;;;6.5;;
73421;SDS011;61637;47.760;-122.022;2023-10-09T04:42:02;17.8;;;6.4;;
73421;SDS011;61637;47.760;-122.022;2023-10-09T04:44:01;18.5;;;6.5;;
73421;SDS011;61637;47.760;-122.022;2023-10-09T04:46:01;17.6;;;6.6;;
73421;SDS011;61637;47.760;-122.022;2023-10-09T04:48:01;19.6;;;6.4;;
73421;SDS011;61637;47.760;-122.022;2023-10-09T04:50:02;18.6;;;6.5;;
73421;SDS011;61637;47.760;-122.022;2023-10-09T04:52:01;16.6;;;6.2;;
73421;SDS011;61637;47.760;-122.022;2023-10-09T04:54:01;18.8;;;6.4;;
73421;SDS011;61637;47.760;-122.022;2023-10-09T04:56:01;23.1;;;6.4;;
73421;SDS011;61637;47.760;-122.022;2023-10-09T04:58:01;21.0;;;5.2;;
73421;SDS011;61637;47.760;-122.022;2023-10-09T05:00:01;14.3;;;5.3;;
73421;SDS011;61637;47.760;-122.022;2023-10-09T05:02:01;15.4;;;4.5;;
73421;SDS011;61637;47.760;-122.022;2023-10-09T05:04:01;20.6;;;4.5;;
73421;SDS011;61637;47.760;-122.022;2023-10-09T05:06:01;12.2;;;4.3;;
73421;SDS011;61637;47.760;-122.022;2023-10-09T05:08:01;14.6;;;4.5;;
73421;SDS011;61637;47.760;-122.022;2023-10-09T05:10:01;25.3;;;4.9;;
73421;SDS011;61637;47.760;-122.022;2023-10-09T05:12:01;23.9;;;5.1;;
73421;SDS011;61637;47.760;-122.022;2023-10-09T05:14:01;24.8;;;5.0;;
73421;SDS011;61637;47.760;-122.022;2023-10-09T05:16:01;19.3;;;5.0;;
73421;SDS011;61637;47.760;-122.022;2023-10-09T05:18:01;16.1;;;4.8;;
73421;SDS011;61637;47.760;-122.022;2023-10-09T05:20:01;14.6;;;4.4;;
73421;SDS011;61637;47.760;-122.022;2023-10-09T05:22:01;19.7;;;4.8;;
73421;SDS011;61637;47.760;-122.022;2023-10-09T05:24:03;24.7;;;4.7;;
73421;SDS011;61637;47.760;-122.022;2023-10-09T05:26:01;19.6;;;4.7;;
73421;SDS011;61637;47.760;-122.022;2023-10-09T05:28:01;26.3;;;5.5;;
73421;SDS011;61637;47.760;-122.022;2023-10-09T05:30:01;27.4;;;4.9;;
73421;SDS011;61637;47.760;-122.022;2023-10-09T05:32:02;22.3;;;5.0;;
73421;SDS011;61637;47.760;-122.022;2023-10-09T05:34:02;14.0;;;4.4;;
73421;SDS011;61637;47.760;-122.022;2023-10-09T05:36:03;22.7;;;5.0;;
73421;SDS011;61637;47.760;-122.022;2023-10-09T05:38:01;12.0;;;4.6;;
73421;SDS011;61637;47.760;-122.022;2023-10-09T05:40:02;17.8;;;4.7;;
73421;SDS011;61637;47.760;-122.022;2023-10-09T05:42:01;14.7;;;4.5;;
73421;SDS011;61637;47.760;-122.022;2023-10-09T05:44:01;19.8;;;4.4;;
73421;SDS011;61637;47.760;-122.022;2023-10-09T05:46:01;14.6;;;4.7;;
73421;SDS011;61637;47.760;-122.022;2023-10-09T05:48:02;10.5;;;4.5;;
73421;SDS011;61637;47.760;-122.022;2023-10-09T05:50:01;13.8;;;4.7;;
73421;SDS011;61637;47.760;-122.022;2023-10-09T05:52:01;16.4;;;4.6;;
73421;SDS011;61637;47.760;-122.022;2023-10-09T05:54:01;14.2;;;4.8;;
73421;SDS011;61637;47.760;-122.022;2023-10-09T05:56:01;13.0;;;5.3;;
73421;SDS011;61637;47.760;-122.022;2023-10-09T05:58:01;16.8;;;5.4;;
73421;SDS011;61637;47.760;-122.022;2023-10-09T06:00:01;10.6;;;4.9;;
73421;SDS011;61637;47.760;-122.022;2023-10-09T06:02:01;17.4;;;5.3;;
73421;SDS011;61637;47.760;-122.022;2023-10-09T06:04:01;15.2;;;5.5;;
73421;SDS011;61637;47.760;-122.022;2023-10-09T06:06:01;15.2;;;5.1;;
73421;SDS011;61637;47.760;-122.022;2023-10-09T06:08:01;16.7;;;5.3;;
73421;SDS011;61637;47.760;-122.022;2023-10-09T06:10:01;17.2;;;5.3;;
73421;SDS011;61637;47.760;-122.022;2023-10-09T06:12:01;14.1;;;5.1;;
73421;SDS011;61637;47.760;-122.022;2023-10-09T06:14:02;9.0;;;4.8;;
73421;SDS011;61637;47.760;-122.022;2023-10-09T06:16:01;16.4;;;5.2;;
73421;SDS011;61637;47.760;-122.022;2023-10-09T06:18:01;15.4;;;4.9;;
73421;SDS011;61637;47.760;-122.022;2023-10-09T06:20:01;14.1;;;4.9;;
73421;SDS011;61637;47.760;-122.022;2023-10-09T06:22:01;15.0;;;5.1;;
73421;SDS011;61637;47.760;-122.022;2023-10-09T06:24:01;15.5;;;5.2;;
73421;SDS011;61637;47.760;-122.022;2023-10-09T06:26:01;22.5;;;5.7;;
73421;SDS011;61637;47.760;-122.022;2023-10-09T06:28:01;12.7;;;5.0;;
73421;SDS011;61637;47.760;-122.022;2023-10-09T06:30:01;16.4;;;5.4;;
73421;SDS011;61637;47.760;-122.022;2023-10-09T06:32:01;12.0;;;5.2;;
73421;SDS011;61637;47.760;-122.022;2023-10-09T06:34:01;18.9;;;5.6;;
73421;SDS011;61637;47.760;-122.022;2023-10-09T06:36:01;14.4;;;5.3;;
73421;SDS011;61637;47.760;-122.022;2023-10-09T06:38:02;17.4;;;5.2;;
73421;SDS011;61637;47.760;-122.022;2023-10-09T06:40:01;13.2;;;5.4;;
73421;SDS011;61637;47.760;-122.022;2023-10-09T06:42:01;12.3;;;5.2;;
73421;SDS011;61637;47.760;-122.022;2023-10-09T06:44:01;18.4;;;5.5;;
73421;SDS011;61637;47.760;-122.022;2023-10-09T06:46:01;23.9;;;5.5;;
73421;SDS011;61637;47.760;-122.022;2023-10-09T06:48:01;12.7;;;5.3;;
73421;SDS011;61637;47.760;-122.022;2023-10-09T06:50:01;12.9;;;5.3;;
73421;SDS011;61637;47.760;-122.022;2023-10-09T06:52:01;21.8;;;5.9;;
73421;SDS011;61637;47.760;-122.022;2023-10-09T06:54:01;13.7;;;5.3;;
73421;SDS011;61637;47.760;-122.022;2023-10-09T06:56:01;15.8;;;5.4;;
73421;SDS011;61637;47.760;-122.022;2023-10-09T06:58:02;12.3;;;5.5;;
73421;SDS011;61637;47.760;-122.022;2023-10-09T07:00:01;23.8;;;5.6;;
73421;SDS011;61637;47.760;-122.022;2023-10-09T07:02:01;12.7;;;5.4;;
73421;SDS011;61637;47.760;-122.022;2023-10-09T07:04:01;20.5;;;5.7;;
73421;SDS011;61637;47.760;-122.022;2023-10-09T07:06:04;12.1;;;5.5;;
73421;SDS011;61637;47.760;-122.022;2023-10-09T07:08:01;13.4;;;5.3;;
73421;SDS011;61637;47.760;-122.022;2023-10-09T07:10:01;15.1;;;5.5;;
73421;SDS011;61637;47.760;-122.022;2023-10-09T07:12:01;13.7;;;5.1;;
73421;SDS011;61637;47.760;-122.022;2023-10-09T07:14:01;12.8;;;4.9;;
73421;SDS011;61637;47.760;-122.022;2023-10-09T07:16:01;13.1;;;5.3;;
73421;SDS011;61637;47.760;-122.022;2023-10-09T07:18:01;16.3;;;5.3;;
73421;SDS011;61637;47.760;-122.022;2023-10-09T07:20:01;12.8;;;4.9;;
73421;SDS011;61637;47.760;-122.022;2023-10-09T07:22:01;15.6;;;5.2;;
73421;SDS011;61637;47.760;-122.022;2023-10-09T07:24:01;14.4;;;5.2;;
73421;SDS011;61637;47.760;-122.022;2023-10-09T07:26:04;10.3;;;4.9;;
73421;SDS011;61637;47.760;-122.022;2023-10-09T07:28:01;10.7;;;5.0;;
73421;SDS011;61637;47.760;-122.022;2023-10-09T07:30:01;12.8;;;4.9;;
73421;SDS011;61637;47.760;-122.022;2023-10-09T07:32:01;10.6;;;4.7;;
73421;SDS011;61637;47.760;-122.022;2023-10-09T07:34:01;12.1;;;4.9;;
73421;SDS011;61637;47.760;-122.022;2023-10-09T07:36:01;10.6;;;5.0;;
73421;SDS011;61637;47.760;-122.022;2023-10-09T07:38:01;11.1;;;4.9;;
73421;SDS011;61637;47.760;-122.022;2023-10-09T07:40:02;10.3;;;4.5;;
73421;SDS011;61637;47.760;-122.022;2023-10-09T07:42:04;11.9;;;4.3;;
73421;SDS011;61637;47.760;-122.022;2023-10-09T07:44:01;11.2;;;4.3;;
73421;SDS011;61637;47.760;-122.022;2023-10-09T07:46:03;9.5;;;4.0;;
73421;SDS011;61637;47.760;-122.022;2023-10-09T07:48:01;14.5;;;4.7;;
73421;SDS011;61637;47.760;-122.022;2023-10-09T07:50:01;12.8;;;4.2;;
73421;SDS011;61637;47.760;-122.022;2023-10-09T07:52:01;15.3;;;4.5;;
73421;SDS011;61637;47.760;-122.022;2023-10-09T07:54:01;15.1;;;4.6;;
73421;SDS011;61637;47.760;-122.022;2023-10-09T07:56:01;13.3;;;4.4;;
73421;SDS011;61637;47.760;-122.022;2023-10-09T07:58:01;15.1;;;4.2;;
73421;SDS011;61637;47.760;-122.022;2023-10-09T08:00:01;22.0;;;5.0;;
73421;SDS011;61637;47.760;-122.022;2023-10-09T08:02:01;15.0;;;4.5;;
73421;SDS011;61637;47.760;-122.022;2023-10-09T08:04:01;11.2;;;4.1;;
73421;SDS011;61637;47.760;-122.022;2023-10-09T08:06:02;12.5;;;4.2;;
73421;SDS011;61637;47.760;-122.022;2023-10-09T08:08:01;14.3;;;4.3;;
73421;SDS011;61637;47.760;-122.022;2023-10-09T08:10:04;10.5;;;4.0;;
73421;SDS011;61637;47.760;-122.022;2023-10-09T08:12:01;10.5;;;4.0;;
73421;SDS011;61637;47.760;-122.022;2023-10-09T08:14:01;10.7;;;4.3;;
73421;SDS011;61637;47.760;-122.022;2023-10-09T08:16:01;12.0;;;4.1;;
73421;SDS011;61637;47.760;-122.022;2023-10-09T08:18:01;12.2;;;3.8;;
73421;SDS011;61637;47.760;-122.022;2023-10-09T08:20:01;9.3;;;3.8;;
73421;SDS011;61637;47.760;-122.022;2023-10-09T08:22:01;19.2;;;4.0;;
73421;SDS011;61637;47.760;-122.022;2023-10-09T08:24:01;10.4;;;3.8;;
73421;SDS011;61637;47.760;-122.022;2023-10-09T08:26:03;13.9;;;3.9;;
73421;SDS011;61637;47.760;-122.022;2023-10-09T08:28:02;11.2;;;4.1;;
73421;SDS011;61637;47.760;-122.022;2023-10-09T08:30:03;16.0;;;4.1;;
73421;SDS011;61637;47.760;-122.022;2023-10-09T08:32:01;13.1;;;3.8;;
73421;SDS011;61637;47.760;-122.022;2023-10-09T08:34:01;12.8;;;4.2;;
73421;SDS011;61637;47.760;-122.022;2023-10-09T08:36:01;9.3;;;4.1;;
73421;SDS011;61637;47.760;-122.022;2023-10-09T08:38:02;17.9;;;4.1;;
73421;SDS011;61637;47.760;-122.022;2023-10-09T08:40:01;16.4;;;4.6;;
73421;SDS011;61637;47.760;-122.022;2023-10-09T08:42:01;14.3;;;4.5;;
73421;SDS011;61637;47.760;-122.022;2023-10-09T08:44:01;12.1;;;4.6;;
73421;SDS011;61637;47.760;-122.022;2023-10-09T08:46:02;12.5;;;4.6;;
73421;SDS011;61637;47.760;-122.022;2023-10-09T08:48:02;13.1;;;4.5;;
73421;SDS011;61637;47.760;-122.022;2023-10-09T08:50:01;16.6;;;5.0;;
73421;SDS011;61637;47.760;-122.022;2023-10-09T08:52:01;12.7;;;4.9;;
73421;SDS011;61637;47.760;-122.022;2023-10-09T08:54:01;14.4;;;4.8;;
73421;SDS011;61637;47.760;-122.022;2023-10-09T08:56:01;16.6;;;5.3;;
73421;SDS011;61637;47.760;-122.022;2023-10-09T08:58:02;13.9;;;5.2;;
73421;SDS011;61637;47.760;-122.022;2023-10-09T09:00:01;17.6;;;6.1;;
73421;SDS011;61637;47.760;-122.022;2023-10-09T09:02:01;14.8;;;6.4;;
73421;SDS011;61637;47.760;-122.022;2023-10-09T09:04:01;12.0;;;6.5;;
73421;SDS011;61637;47.760;-122.022;2023-10-09T09:06:02;16.2;;;8.0;;
73421;SDS011;61637;47.760;-122.022;2023-10-09T09:08:01;15.4;;;7.3;;
73421;SDS011;61637;47.760;-122.022;2023-10-09T09:10:01;15.2;;;7.6;;
73421;SDS011;61637;47.760;-122.022;2023-10-09T09:12:01;12.5;;;7.5;;
73421;SDS011;61637;47.760;-122.022;2023-10-09T09:14:02;13.4;;;7.5;;
73421;SDS011;61637;47.760;-122.022;2023-10-09T09:16:01;14.8;;;8.0;;
73421;SDS011;61637;47.760;-122.022;2023-10-09T09:18:05;14.4;;;8.4;;
73421;SDS011;61637;47.760;-122.022;2023-10-09T09:22:01;16.4;;;7.9;;
73421;SDS011;61637;47.760;-122.022;2023-10-09T09:24:01;15.3;;;7.6;;
73421;SDS011;61637;47.760;-122.022;2023-10-09T09:26:01;13.5;;;7.2;;
73421;SDS011;61637;47.760;-122.022;2023-10-09T09:28:01;13.3;;;6.4;;
73421;SDS011;61637;47.760;-122.022;2023-10-09T09:30:01;16.6;;;6.4;;
73421;SDS011;61637;47.760;-122.022;2023-10-09T09:32:01;14.2;;;6.7;;
73421;SDS011;61637;47.760;-122.022;2023-10-09T09:34:01;12.3;;;6.4;;
73421;SDS011;61637;47.760;-122.022;2023-10-09T09:36:02;10.2;;;6.1;;
73421;SDS011;61637;47.760;-122.022;2023-10-09T09:38:01;11.1;;;5.9;;
73421;SDS011;61637;47.760;-122.022;2023-10-09T09:40:02;11.0;;;6.4;;
73421;SDS011;61637;47.760;-122.022;2023-10-09T09:42:01;11.5;;;6.1;;
73421;SDS011;61637;47.760;-122.022;2023-10-09T09:44:01;12.3;;;5.6;;
73421;SDS011;61637;47.760;-122.022;2023-10-09T09:46:01;11.5;;;5.8;;
73421;SDS011;61637;47.760;-122.022;2023-10-09T09:48:03;12.6;;;6.0;;
73421;SDS011;61637;47.760;-122.022;2023-10-09T09:50:02;13.2;;;6.3;;
73421;SDS011;61637;47.760;-122.022;2023-10-09T09:52:02;15.0;;;5.9;;
73421;SDS011;61637;47.760;-122.022;2023-10-09T09:54:02;13.0;;;5.6;;
73421;SDS011;61637;47.760;-122.022;2023-10-09T09:56:03;12.1;;;5.3;;
73421;SDS011;61637;47.760;-122.022;2023-10-09T09:58:02;17.8;;;5.6;;
73421;SDS011;61637;47.760;-122.022;2023-10-09T10:00:01;14.8;;;5.8;;
73421;SDS011;61637;47.760;-122.022;2023-10-09T10:02:01;15.8;;;5.9;;
73421;SDS011;61637;47.760;-122.022;2023-10-09T10:04:09;14.7;;;5.2;;
73421;SDS011;61637;47.760;-122.022;2023-10-09T10:06:02;16.3;;;6.0;;
73421;SDS011;61637;47.760;-122.022;2023-10-09T10:08:02;19.7;;;5.8;;
73421;SDS011;61637;47.760;-122.022;2023-10-09T10:10:01;17.7;;;5.7;;
73421;SDS011;61637;47.760;-122.022;2023-10-09T10:12:01;14.8;;;5.4;;
73421;SDS011;61637;47.760;-122.022;2023-10-09T10:14:01;15.2;;;5.6;;
73421;SDS011;61637;47.760;-122.022;2023-10-09T10:16:05;12.5;;;5.4;;
73421;SDS011;61637;47.760;-122.022;2023-10-09T10:18:09;14.4;;;5.6;;
73421;SDS011;61637;47.760;-122.022;2023-10-09T10:20:02;10.7;;;5.5;;
73421;SDS011;61637;47.760;-122.022;2023-10-09T10:24:02;11.7;;;5.3;;
73421;SDS011;61637;47.760;-122.022;2023-10-09T10:26:20;12.9;;;5.0;;
73421;SDS011;61637;47.760;-122.022;2023-10-09T10:28:15;18.1;;;5.4;;
73421;SDS011;61637;47.760;-122.022;2023-10-09T10:32:02;11.9;;;5.1;;
73421;SDS011;61637;47.760;-122.022;2023-10-09T10:34:04;9.9;;;4.7;;
73421;SDS011;61637;47.760;-122.022;2023-10-09T10:36:01;15.7;;;5.2;;
73421;SDS011;61637;47.760;-122.022;2023-10-09T10:38:01;10.8;;;4.7;;
73421;SDS011;61637;47.760;-122.022;2023-10-09T10:40:01;14.3;;;4.7;;
73421;SDS011;61637;47.760;-122.022;2023-10-09T10:42:01;9.7;;;4.5;;
73421;SDS011;61637;47.760;-122.022;2023-10-09T10:44:02;11.5;;;4.8;;
73421;SDS011;61637;47.760;-122.022;2023-10-09T10:46:01;10.0;;;4.5;;
73421;SDS011;61637;47.760;-122.022;2023-10-09T10:48:02;11.5;;;4.7;;
73421;SDS011;61637;47.760;-122.022;2023-10-09T10:50:02;9.7;;;4.8;;
73421;SDS011;61637;47.760;-122.022;2023-10-09T10:52:01;10.8;;;4.5;;
73421;SDS011;61637;47.760;-122.022;2023-10-09T10:54:01;11.7;;;4.9;;
73421;SDS011;61637;47.760;-122.022;2023-10-09T10:56:02;11.5;;;4.7;;
73421;SDS011;61637;47.760;-122.022;2023-10-09T10:58:01;16.3;;;4.8;;
73421;SDS011;61637;47.760;-122.022;2023-10-09T11:00:01;13.9;;;4.9;;
73421;SDS011;61637;47.760;-122.022;2023-10-09T11:02:01;15.7;;;4.9;;
73421;SDS011;61637;47.760;-122.022;2023-10-09T11:04:10;16.1;;;4.6;;
73421;SDS011;61637;47.760;-122.022;2023-10-09T11:06:02;14.4;;;4.5;;
73421;SDS011;61637;47.760;-122.022;2023-10-09T11:08:10;16.2;;;4.7;;
73421;SDS011;61637;47.760;-122.022;2023-10-09T11:10:01;13.5;;;4.5;;
73421;SDS011;61637;47.760;-122.022;2023-10-09T11:12:05;19.1;;;5.1;;
73421;SDS011;61637;47.760;-122.022;2023-10-09T11:14:08;15.7;;;4.5;;
73421;SDS011;61637;47.760;-122.022;2023-10-09T11:16:03;12.5;;;4.7;;
73421;SDS011;61637;47.760;-122.022;2023-10-09T11:18:03;16.7;;;4.8;;
73421;SDS011;61637;47.760;-122.022;2023-10-09T11:20:02;9.4;;;4.3;;
73421;SDS011;61637;47.760;-122.022;2023-10-09T11:22:02;14.9;;;4.3;;
73421;SDS011;61637;47.760;-122.022;2023-10-09T11:24:01;8.8;;;4.3;;
73421;SDS011;61637;47.760;-122.022;2023-10-09T11:26:01;14.2;;;4.6;;
73421;SDS011;61637;47.760;-122.022;2023-10-09T11:28:01;11.3;;;4.5;;
73421;SDS011;61637;47.760;-122.022;2023-10-09T11:30:01;9.9;;;4.1;;
73421;SDS011;61637;47.760;-122.022;2023-10-09T11:32:03;17.3;;;5.9;;
73421;SDS011;61637;47.760;-122.022;2023-10-09T11:34:01;16.4;;;4.3;;
73421;SDS011;61637;47.760;-122.022;2023-10-09T11:36:01;12.9;;;4.0;;
73421;SDS011;61637;47.760;-122.022;2023-10-09T11:38:01;16.1;;;4.1;;
73421;SDS011;61637;47.760;-122.022;2023-10-09T11:40:01;11.6;;;4.0;;
73421;SDS011;61637;47.760;-122.022;2023-10-09T11:42:02;9.7;;;3.9;;
73421;SDS011;61637;47.760;-122.022;2023-10-09T11:44:01;12.1;;;4.2;;
73421;SDS011;61637;47.760;-122.022;2023-10-09T11:46:08;11.9;;;4.0;;
73421;SDS011;61637;47.760;-122.022;2023-10-09T11:48:18;14.9;;;4.6;;